createdAt,value
2018-11-05T00:00:45.754Z,9.94
2018-11-05T00:01:45.732Z,9.96
2018-11-05T00:02:45.721Z,9.97
2018-11-05T00:03:45.710Z,10.01
2018-11-05T00:04:45.697Z,9.94
2018-11-05T00:05:45.704Z,9.99
2018-11-05T00:06:45.725Z,9.96
2018-11-05T00:07:45.666Z,9.99
2018-11-05T00:08:45.668Z,9.94
2018-11-05T00:09:45.644Z,9.96
2018-11-05T00:10:45.638Z,9.89
2018-11-05T00:11:45.619Z,9.88
2018-11-05T00:12:45.637Z,9.97
2018-11-05T00:13:45.602Z,9.99
2018-11-05T00:14:45.590Z,9.94
2018-11-05T00:15:45.576Z,9.97
2018-11-05T00:16:45.562Z,9.96
2018-11-05T00:17:45.564Z,9.94
2018-11-05T00:18:45.569Z,9.96
2018-11-05T00:19:45.540Z,9.99
2018-11-05T00:20:45.518Z,9.99
2018-11-05T00:21:45.508Z,9.99
2018-11-05T00:22:45.497Z,9.97
2018-11-05T00:23:45.486Z,9.91
2018-11-05T00:24:45.487Z,10.00
2018-11-05T00:25:45.468Z,9.97
2018-11-05T00:26:45.452Z,9.94
2018-11-05T00:27:45.440Z,9.96
2018-11-05T00:28:45.429Z,9.93
2018-11-05T00:29:45.470Z,9.93
2018-11-05T00:30:45.409Z,9.94
2018-11-05T00:31:45.397Z,9.93
2018-11-05T00:32:45.385Z,9.89
2018-11-05T00:33:45.371Z,9.94
2018-11-05T00:34:45.364Z,9.89
2018-11-05T00:35:45.370Z,9.93
2018-11-05T00:36:45.338Z,9.94
2018-11-05T00:37:45.335Z,9.94
2018-11-05T00:38:45.317Z,9.93
2018-11-05T00:39:45.307Z,9.91
2018-11-05T00:40:45.297Z,9.93
2018-11-05T00:41:45.353Z,9.97
2018-11-05T00:42:45.271Z,9.91
2018-11-05T00:43:45.269Z,9.97
2018-11-05T00:44:45.263Z,9.91
2018-11-05T00:45:45.301Z,9.91
2018-11-05T00:46:45.226Z,9.96
2018-11-05T00:47:45.249Z,9.89
2018-11-05T00:48:45.206Z,9.93
2018-11-05T00:49:45.211Z,9.91
2018-11-05T00:50:45.186Z,9.97
2018-11-05T00:51:45.195Z,9.91
2018-11-05T00:52:45.165Z,9.88
2018-11-05T00:53:45.162Z,9.93
2018-11-05T00:54:45.138Z,9.89
2018-11-05T00:55:45.136Z,9.91
2018-11-05T00:56:45.117Z,9.89
2018-11-05T00:57:45.126Z,10.00
2018-11-05T00:58:45.093Z,9.89
2018-11-05T00:59:45.083Z,9.96
2018-11-05T01:00:45.070Z,9.91
2018-11-05T01:01:45.067Z,10.00
2018-11-05T01:02:45.050Z,9.94
2018-11-05T01:03:45.050Z,9.91
2018-11-05T01:04:45.028Z,9.99
2018-11-05T01:05:45.017Z,9.96
2018-11-05T01:06:45.003Z,9.96
2018-11-05T01:07:45.001Z,9.94
2018-11-05T01:08:45.018Z,9.96
2018-11-05T01:09:44.971Z,9.93
2018-11-05T01:10:44.963Z,9.94
2018-11-05T01:11:44.949Z,10.01
2018-11-05T01:12:44.940Z,9.97
2018-11-05T01:13:44.927Z,10.00
2018-11-05T01:14:44.928Z,9.91
2018-11-05T01:15:44.917Z,9.96
2018-11-05T01:16:44.894Z,9.99
2018-11-05T01:17:44.882Z,9.99
2018-11-05T01:18:44.932Z,9.94
2018-11-05T01:19:44.866Z,9.94
2018-11-05T01:20:44.848Z,10.00
2018-11-05T01:21:44.841Z,9.99
2018-11-05T01:22:44.835Z,10.00
2018-11-05T01:23:44.819Z,9.94
2018-11-05T01:24:44.840Z,9.97
2018-11-05T01:25:44.799Z,9.97
2018-11-05T01:26:44.781Z,9.89
2018-11-05T01:27:44.769Z,9.93
2018-11-05T01:28:44.764Z,9.93
2018-11-05T01:29:44.745Z,9.96
2018-11-05T01:30:44.765Z,9.97
2018-11-05T01:31:44.726Z,9.91
2018-11-05T01:32:44.721Z,9.96
2018-11-05T01:33:44.701Z,9.97
2018-11-05T01:34:44.691Z,9.94
2018-11-05T01:35:44.680Z,9.93
2018-11-05T01:36:44.688Z,9.93
2018-11-05T01:37:44.657Z,9.91
2018-11-05T01:38:44.654Z,9.93
2018-11-05T01:39:44.635Z,9.99
2018-11-05T01:40:44.625Z,10.01
2018-11-05T01:41:44.614Z,10.04
2018-11-05T01:42:44.619Z,9.96
2018-11-05T01:43:44.626Z,9.96
2018-11-05T01:44:44.582Z,10.01
2018-11-05T01:45:44.575Z,10.04
2018-11-05T01:46:44.556Z,10.01
2018-11-05T01:47:44.551Z,9.93
2018-11-05T01:48:44.536Z,10.01
2018-11-05T01:49:44.535Z,10.03
2018-11-05T01:50:44.511Z,10.01
2018-11-05T01:51:44.722Z,10.01
2018-11-05T01:52:44.497Z,10.00
2018-11-05T01:53:44.478Z,10.01
2018-11-05T01:54:44.466Z,9.99
2018-11-05T01:55:44.455Z,10.01
2018-11-05T01:56:44.444Z,9.97
2018-11-05T01:57:44.489Z,9.96
2018-11-05T01:58:44.422Z,9.99
2018-11-05T01:59:44.413Z,10.01
2018-11-05T02:00:44.399Z,9.96
2018-11-05T02:01:44.394Z,10.00
2018-11-05T02:02:44.379Z,10.03
2018-11-05T02:03:44.403Z,9.97
2018-11-05T02:04:44.354Z,9.96
2018-11-05T02:05:44.344Z,10.01
2018-11-05T02:06:44.332Z,9.99
2018-11-05T02:07:44.323Z,9.94
2018-11-05T02:08:44.313Z,9.94
2018-11-05T02:09:44.334Z,9.97
2018-11-05T02:10:44.285Z,9.99
2018-11-05T02:11:44.275Z,9.96
2018-11-05T02:12:44.263Z,9.93
2018-11-05T02:13:44.259Z,10.00
2018-11-05T02:14:44.241Z,10.00
2018-11-05T02:15:44.265Z,9.99
2018-11-05T02:16:44.218Z,9.97
2018-11-05T02:17:44.209Z,10.03
2018-11-05T02:18:44.195Z,9.99
2018-11-05T02:19:44.191Z,10.01
2018-11-05T02:20:44.175Z,10.01
2018-11-05T02:21:44.176Z,9.94
2018-11-05T02:22:44.152Z,9.93
2018-11-05T02:23:44.141Z,10.07
2018-11-05T02:24:44.129Z,10.01
2018-11-05T02:25:44.135Z,10.01
2018-11-05T02:26:44.105Z,10.01
2018-11-05T02:27:44.130Z,10.04
2018-11-05T02:28:44.084Z,9.99
2018-11-05T02:29:44.076Z,9.96
2018-11-05T02:30:44.075Z,9.93
2018-11-05T02:31:44.054Z,10.01
2018-11-05T02:32:44.050Z,10.03
2018-11-05T02:33:44.033Z,10.00
2018-11-05T02:34:44.018Z,10.00
2018-11-05T02:35:44.007Z,10.04
2018-11-05T02:36:43.993Z,10.01
2018-11-05T02:37:44.025Z,10.00
2018-11-05T02:38:43.973Z,10.01
2018-11-05T02:39:43.964Z,10.01
2018-11-05T02:40:43.949Z,9.97
2018-11-05T02:41:43.938Z,10.01
2018-11-05T02:42:43.933Z,10.04
2018-11-05T02:43:43.955Z,10.03
2018-11-05T02:44:43.904Z,10.01
2018-11-05T02:45:43.893Z,10.06
2018-11-05T02:46:43.881Z,10.03
2018-11-05T02:47:43.876Z,9.97
2018-11-05T02:48:43.858Z,9.94
2018-11-05T02:49:43.873Z,9.94
2018-11-05T02:50:43.837Z,9.99
2018-11-05T02:51:43.823Z,10.06
2018-11-05T02:52:43.813Z,9.93
2018-11-05T02:53:43.836Z,9.97
2018-11-05T02:54:43.793Z,10.07
2018-11-05T02:55:43.787Z,10.01
2018-11-05T02:56:43.768Z,9.93
2018-11-05T02:57:43.757Z,10.01
2018-11-05T02:58:43.745Z,9.96
2018-11-05T02:59:43.747Z,10.01
2018-11-05T03:00:43.721Z,10.01
2018-11-05T03:01:43.715Z,10.00
2018-11-05T03:02:43.699Z,9.97
2018-11-05T03:03:43.690Z,9.99
2018-11-05T03:04:43.689Z,9.96
2018-11-05T03:05:43.669Z,10.07
2018-11-05T03:06:43.654Z,9.99
2018-11-05T03:07:43.650Z,10.04
2018-11-05T03:08:43.633Z,10.00
2018-11-05T03:09:43.651Z,10.06
2018-11-05T03:10:43.610Z,10.04
2018-11-05T03:11:43.599Z,10.04
2018-11-05T03:12:43.589Z,10.07
2018-11-05T03:13:43.579Z,10.07
2018-11-05T03:14:43.565Z,10.01
2018-11-05T03:15:43.570Z,10.07
2018-11-05T03:16:43.555Z,9.99
2018-11-05T03:17:43.532Z,10.10
2018-11-05T03:18:43.521Z,10.07
2018-11-05T03:19:43.513Z,10.07
2018-11-05T03:20:43.498Z,10.07
2018-11-05T03:21:43.498Z,10.12
2018-11-05T03:22:43.476Z,10.07
2018-11-05T03:23:43.464Z,10.07
2018-11-05T03:24:43.452Z,10.12
2018-11-05T03:25:43.453Z,10.14
2018-11-05T03:26:43.442Z,10.09
2018-11-05T03:27:43.417Z,10.09
2018-11-05T03:28:43.441Z,10.06
2018-11-05T03:29:43.396Z,10.12
2018-11-05T03:30:43.385Z,10.09
2018-11-05T03:31:43.382Z,10.10
2018-11-05T03:32:43.366Z,10.10
2018-11-05T03:33:43.350Z,10.07
2018-11-05T03:34:43.349Z,10.15
2018-11-05T03:35:43.358Z,10.14
2018-11-05T03:36:43.317Z,10.12
2018-11-05T03:37:43.312Z,10.15
2018-11-05T03:38:43.295Z,10.10
2018-11-05T03:39:43.296Z,10.03
2018-11-05T03:40:43.271Z,10.07
2018-11-05T03:41:43.260Z,10.10
2018-11-05T03:42:43.307Z,10.09
2018-11-05T03:43:43.238Z,10.06
2018-11-05T03:44:43.264Z,10.06
2018-11-05T03:45:43.216Z,10.07
2018-11-05T03:46:43.204Z,10.09
2018-11-05T03:47:43.205Z,10.07
2018-11-05T03:48:43.184Z,10.15
2018-11-05T03:49:43.170Z,10.10
2018-11-05T03:50:43.173Z,10.14
2018-11-05T03:51:43.148Z,10.18
2018-11-05T03:52:43.136Z,10.12
2018-11-05T03:53:43.125Z,10.18
2018-11-05T03:54:43.151Z,10.14
2018-11-05T03:55:43.204Z,10.17
2018-11-05T03:56:43.171Z,10.22
2018-11-05T03:57:43.080Z,10.22
2018-11-05T03:58:43.081Z,10.21
2018-11-05T03:59:43.059Z,10.15
2018-11-05T04:00:43.081Z,10.15
2018-11-05T04:01:43.036Z,10.14
2018-11-05T04:02:43.031Z,10.18
2018-11-05T04:03:43.012Z,10.18
2018-11-05T04:04:43.001Z,10.18
2018-11-05T04:05:42.992Z,10.15
2018-11-05T04:06:42.997Z,10.21
2018-11-05T04:07:42.969Z,10.22
2018-11-05T04:08:42.963Z,10.21
2018-11-05T04:09:42.945Z,10.15
2018-11-05T04:10:42.934Z,10.18
2018-11-05T04:11:42.934Z,10.22
2018-11-05T04:12:42.913Z,10.18
2018-11-05T04:13:42.915Z,10.33
2018-11-05T04:14:42.901Z,10.21
2018-11-05T04:15:43.079Z,10.25
2018-11-05T04:16:42.866Z,10.19
2018-11-05T04:17:42.856Z,10.22
2018-11-05T04:18:42.858Z,10.26
2018-11-05T04:19:42.836Z,10.30
2018-11-05T04:20:42.824Z,10.14
2018-11-05T04:21:42.816Z,10.30
2018-11-05T04:22:42.813Z,10.28
2018-11-05T04:23:42.791Z,10.22
2018-11-05T04:24:42.780Z,10.22
2018-11-05T04:25:42.798Z,10.26
2018-11-05T04:26:42.760Z,10.24
2018-11-05T04:27:42.897Z,10.32
2018-11-05T04:28:42.733Z,10.18
2018-11-05T04:29:42.723Z,10.30
2018-11-05T04:30:42.712Z,10.18
2018-11-05T04:31:42.731Z,10.26
2018-11-05T04:32:42.693Z,10.25
2018-11-05T04:33:42.683Z,10.26
2018-11-05T04:34:42.666Z,10.24
2018-11-05T04:35:42.654Z,10.24
2018-11-05T04:36:42.642Z,10.21
2018-11-05T04:37:42.669Z,10.33
2018-11-05T04:38:42.620Z,10.30
2018-11-05T04:39:42.618Z,10.24
2018-11-05T04:40:42.600Z,10.25
2018-11-05T04:41:42.588Z,10.18
2018-11-05T04:42:42.576Z,10.24
2018-11-05T04:43:42.584Z,10.25
2018-11-05T04:44:42.558Z,10.28
2018-11-05T04:45:42.546Z,10.26
2018-11-05T04:46:42.530Z,10.22
2018-11-05T04:47:42.521Z,10.28
2018-11-05T04:48:42.508Z,10.32
2018-11-05T04:49:42.512Z,10.28
2018-11-05T04:50:42.488Z,10.19
2018-11-05T04:51:42.482Z,10.28
2018-11-05T04:52:42.465Z,10.33
2018-11-05T04:53:42.500Z,10.26
2018-11-05T04:54:42.443Z,10.28
2018-11-05T04:55:42.429Z,10.19
2018-11-05T04:56:42.424Z,10.33
2018-11-05T04:57:42.413Z,10.30
2018-11-05T04:58:42.401Z,10.22
2018-11-05T04:59:42.421Z,10.28
2018-11-05T05:00:42.375Z,10.30
2018-11-05T05:01:42.375Z,10.36
2018-11-05T05:02:42.357Z,10.32
2018-11-05T05:03:42.347Z,10.34
2018-11-05T05:04:42.335Z,10.33
2018-11-05T05:05:42.332Z,10.21
2018-11-05T05:06:42.310Z,10.32
2018-11-05T05:07:42.299Z,10.19
2018-11-05T05:08:42.285Z,10.22
2018-11-05T05:09:42.275Z,10.26
2018-11-05T05:10:42.279Z,10.24
2018-11-05T05:11:42.256Z,10.33
2018-11-05T05:12:42.241Z,10.28
2018-11-05T05:13:42.228Z,10.34
2018-11-05T05:14:42.218Z,10.26
2018-11-05T05:15:42.221Z,10.32
2018-11-05T05:16:42.196Z,10.32
2018-11-05T05:17:42.188Z,10.28
2018-11-05T05:18:42.193Z,10.32
2018-11-05T05:19:42.162Z,10.33
2018-11-05T05:20:42.150Z,10.28
2018-11-05T05:21:42.140Z,10.24
2018-11-05T05:22:42.277Z,10.25
2018-11-05T05:23:42.153Z,10.18
2018-11-05T05:24:42.112Z,10.32
2018-11-05T05:25:42.096Z,10.25
2018-11-05T05:26:42.085Z,10.26
2018-11-05T05:27:42.074Z,10.28
2018-11-05T05:28:42.064Z,10.32
2018-11-05T05:29:42.063Z,10.30
2018-11-05T05:30:42.044Z,10.32
2018-11-05T05:31:42.028Z,10.33
2018-11-05T05:32:42.017Z,10.26
2018-11-05T05:33:42.073Z,10.26
2018-11-05T05:34:42.008Z,10.30
2018-11-05T05:35:41.984Z,10.32
2018-11-05T05:36:41.995Z,10.28
2018-11-05T05:37:41.961Z,10.28
2018-11-05T05:38:41.949Z,10.19
2018-11-05T05:39:41.936Z,10.34
2018-11-05T05:40:41.951Z,10.28
2018-11-05T05:41:41.949Z,10.36
2018-11-05T05:42:41.908Z,10.26
2018-11-05T05:43:41.892Z,10.30
2018-11-05T05:44:41.883Z,10.30
2018-11-05T05:45:41.870Z,10.25
2018-11-05T05:46:41.860Z,10.28
2018-11-05T05:47:41.859Z,10.28
2018-11-05T05:48:41.844Z,10.32
2018-11-05T05:49:41.826Z,10.30
2018-11-05T05:50:41.821Z,10.25
2018-11-05T05:51:41.805Z,10.24
2018-11-05T05:52:41.793Z,10.32
2018-11-05T05:53:41.796Z,10.22
2018-11-05T05:54:41.779Z,10.24
2018-11-05T05:55:41.762Z,10.33
2018-11-05T05:56:41.747Z,10.18
2018-11-05T05:57:41.736Z,10.25
2018-11-05T05:58:41.762Z,10.33
2018-11-05T05:59:41.743Z,10.33
2018-11-05T06:00:41.709Z,10.32
2018-11-05T06:01:41.690Z,10.28
2018-11-05T06:02:41.680Z,10.21
2018-11-05T06:03:41.676Z,10.32
2018-11-05T06:04:41.673Z,10.17
2018-11-05T06:05:41.647Z,10.33
2018-11-05T06:06:41.802Z,10.25
2018-11-05T06:07:41.624Z,10.25
2018-11-05T06:08:41.648Z,10.18
2018-11-05T06:09:41.603Z,10.34
2018-11-05T06:10:41.591Z,10.25
2018-11-05T06:11:41.580Z,10.25
2018-11-05T06:12:41.574Z,10.19
2018-11-05T06:13:41.594Z,10.26
2018-11-05T06:14:41.580Z,10.28
2018-11-05T06:15:41.543Z,10.19
2018-11-05T06:16:41.524Z,10.33
2018-11-05T06:17:41.516Z,10.24
2018-11-05T06:18:41.512Z,10.26
2018-11-05T06:19:41.490Z,10.33
2018-11-05T06:20:41.518Z,10.26
2018-11-05T06:21:41.513Z,10.24
2018-11-05T06:22:41.455Z,10.28
2018-11-05T06:23:41.446Z,10.28
2018-11-05T06:24:41.445Z,10.21
2018-11-05T06:25:41.423Z,10.28
2018-11-05T06:26:41.429Z,10.28
2018-11-05T06:27:41.405Z,10.22
2018-11-05T06:28:41.482Z,10.25
2018-11-05T06:29:41.377Z,10.28
2018-11-05T06:30:41.373Z,10.32
2018-11-05T06:31:41.391Z,10.28
2018-11-05T06:32:41.348Z,10.33
2018-11-05T06:33:41.335Z,10.39
2018-11-05T06:34:41.323Z,10.24
2018-11-05T06:35:41.313Z,10.32
2018-11-05T06:36:41.309Z,10.30
2018-11-05T06:37:41.321Z,10.33
2018-11-05T06:38:41.279Z,10.26
2018-11-05T06:39:41.266Z,10.32
2018-11-05T06:40:41.255Z,10.36
2018-11-05T06:41:41.338Z,10.36
2018-11-05T06:42:41.242Z,10.34
2018-11-05T06:43:41.235Z,10.32
2018-11-05T06:44:41.279Z,10.28
2018-11-05T06:45:41.202Z,10.39
2018-11-05T06:46:41.192Z,10.37
2018-11-05T06:47:41.178Z,10.37
2018-11-05T06:48:41.209Z,10.40
2018-11-05T06:49:41.155Z,10.36
2018-11-05T06:50:41.143Z,10.36
2018-11-05T06:51:41.131Z,10.36
2018-11-05T06:52:41.167Z,10.42
2018-11-05T06:53:41.121Z,10.40
2018-11-05T06:54:41.103Z,10.42
2018-11-05T06:55:41.099Z,10.40
2018-11-05T06:56:41.077Z,10.34
2018-11-05T06:57:41.137Z,10.36
2018-11-05T06:58:41.055Z,10.44
2018-11-05T06:59:41.042Z,10.51
2018-11-05T07:00:41.049Z,10.47
2018-11-05T07:01:41.039Z,10.53
2018-11-05T07:02:41.084Z,10.51
2018-11-05T07:03:40.998Z,10.53
2018-11-05T07:04:40.986Z,10.53
2018-11-05T07:05:40.987Z,10.51
2018-11-05T07:06:40.965Z,10.51
2018-11-05T07:07:40.964Z,10.51
2018-11-05T07:08:40.940Z,10.44
2018-11-05T07:09:40.996Z,10.47
2018-11-05T07:10:40.918Z,10.47
2018-11-05T07:11:40.906Z,10.53
2018-11-05T07:12:40.900Z,10.51
2018-11-05T07:13:40.884Z,10.52
2018-11-05T07:14:40.873Z,10.51
2018-11-05T07:15:40.873Z,10.42
2018-11-05T07:16:40.849Z,10.47
2018-11-05T07:17:40.839Z,10.44
2018-11-05T07:18:40.986Z,10.55
2018-11-05T07:19:40.815Z,10.47
2018-11-05T07:20:40.817Z,10.46
2018-11-05T07:21:40.815Z,10.52
2018-11-05T07:22:40.784Z,10.52
2018-11-05T07:23:40.772Z,10.44
2018-11-05T07:24:40.766Z,10.52
2018-11-05T07:25:40.747Z,10.47
2018-11-05T07:26:40.816Z,10.44
2018-11-05T07:27:40.805Z,10.47
2018-11-05T07:28:40.714Z,10.51
2018-11-05T07:29:40.703Z,10.47
2018-11-05T07:30:40.699Z,10.43
2018-11-05T07:31:40.679Z,10.43
2018-11-05T07:32:40.705Z,10.44
2018-11-05T07:33:40.712Z,10.51
2018-11-05T07:34:40.646Z,10.39
2018-11-05T07:35:40.634Z,10.47
2018-11-05T07:36:40.625Z,10.44
2018-11-05T07:37:40.639Z,10.46
2018-11-05T07:38:40.613Z,10.47
2018-11-05T07:39:40.622Z,10.44
2018-11-05T07:40:40.576Z,10.39
2018-11-05T07:41:40.567Z,10.53
2018-11-05T07:42:40.563Z,10.46
2018-11-05T07:43:40.542Z,10.40
2018-11-05T07:44:40.531Z,10.52
2018-11-05T07:45:40.533Z,10.42
2018-11-05T07:46:40.510Z,10.43
2018-11-05T07:47:40.501Z,10.39
2018-11-05T07:48:40.493Z,10.39
2018-11-05T07:49:40.475Z,10.40
2018-11-05T07:50:40.526Z,10.37
2018-11-05T07:51:40.451Z,10.42
2018-11-05T07:52:40.441Z,10.44
2018-11-05T07:53:40.429Z,10.39
2018-11-05T07:54:40.423Z,10.42
2018-11-05T07:55:40.419Z,10.40
2018-11-05T07:56:40.442Z,10.42
2018-11-05T07:57:40.397Z,10.39
2018-11-05T07:58:40.373Z,10.39
2018-11-05T07:59:40.361Z,10.46
2018-11-05T08:00:40.353Z,10.43
2018-11-05T08:01:40.338Z,10.43
2018-11-05T08:02:40.385Z,10.52
2018-11-05T08:03:40.316Z,10.58
2018-11-05T08:04:40.305Z,10.51
2018-11-05T08:05:40.291Z,10.51
2018-11-05T08:06:40.289Z,10.47
2018-11-05T08:07:40.272Z,10.51
2018-11-05T08:08:40.293Z,10.43
2018-11-05T08:09:40.247Z,10.46
2018-11-05T08:10:40.238Z,10.46
2018-11-05T08:11:40.226Z,10.43
2018-11-05T08:12:40.221Z,10.53
2018-11-05T08:13:40.203Z,10.47
2018-11-05T08:14:40.206Z,10.40
2018-11-05T08:15:40.179Z,10.44
2018-11-05T08:16:40.167Z,10.39
2018-11-05T08:17:40.157Z,10.43
2018-11-05T08:18:40.154Z,10.42
2018-11-05T08:19:40.169Z,10.39
2018-11-05T08:20:40.122Z,10.40
2018-11-05T08:21:40.111Z,10.39
2018-11-05T08:22:40.100Z,10.42
2018-11-05T08:23:40.091Z,10.53
2018-11-05T08:24:40.084Z,10.51
2018-11-05T08:25:40.103Z,10.51
2018-11-05T08:26:40.055Z,10.51
2018-11-05T08:27:40.043Z,10.51
2018-11-05T08:28:40.032Z,10.52
2018-11-05T08:29:40.019Z,10.46
2018-11-05T08:30:40.016Z,10.52
2018-11-05T08:31:40.036Z,10.52
2018-11-05T08:32:39.988Z,10.47
2018-11-05T08:33:39.975Z,10.55
2018-11-05T08:34:39.963Z,10.47
2018-11-05T08:35:39.951Z,10.62
2018-11-05T08:36:39.946Z,10.56
2018-11-05T08:37:39.942Z,10.58
2018-11-05T08:38:39.918Z,10.58
2018-11-05T08:39:39.907Z,10.60
2018-11-05T08:40:39.896Z,10.56
2018-11-05T08:41:39.899Z,10.62
2018-11-05T08:42:39.915Z,10.58
2018-11-05T08:43:39.861Z,10.62
2018-11-05T08:44:39.849Z,10.60
2018-11-05T08:45:39.838Z,10.60
2018-11-05T08:46:39.886Z,10.56
2018-11-05T08:47:39.816Z,10.60
2018-11-05T08:48:39.846Z,10.60
2018-11-05T08:49:39.792Z,10.62
2018-11-05T08:50:39.808Z,10.66
2018-11-05T08:51:39.965Z,10.59
2018-11-05T08:52:39.759Z,10.66
2018-11-05T08:53:39.749Z,10.68
2018-11-05T08:54:39.756Z,10.66
2018-11-05T08:55:39.725Z,10.65
2018-11-05T08:56:39.711Z,10.76
2018-11-05T08:57:39.777Z,10.65
2018-11-05T08:58:39.689Z,10.71
2018-11-05T08:59:39.691Z,10.73
2018-11-05T09:00:39.673Z,10.71
2018-11-05T09:01:39.656Z,10.70
2018-11-05T09:02:39.645Z,10.70
2018-11-05T09:03:39.633Z,10.78
2018-11-05T09:04:39.706Z,10.78
2018-11-05T09:05:39.610Z,10.84
2018-11-05T09:06:39.604Z,10.74
2018-11-05T09:07:39.587Z,10.80
2018-11-05T09:08:39.574Z,10.83
2018-11-05T09:09:39.565Z,10.80
2018-11-05T09:10:39.903Z,10.83
2018-11-05T09:11:39.917Z,10.92
2018-11-05T09:12:39.537Z,10.91
2018-11-05T09:13:39.520Z,10.84
2018-11-05T09:14:39.509Z,10.96
2018-11-05T09:15:39.531Z,11.01
2018-11-05T09:16:39.486Z,11.01
2018-11-05T09:17:39.472Z,11.02
2018-11-05T09:18:39.468Z,11.02
2018-11-05T09:19:39.452Z,11.03
2018-11-05T09:20:39.515Z,11.07
2018-11-05T09:21:39.461Z,11.07
2018-11-05T09:22:39.416Z,11.14
2018-11-05T09:23:39.406Z,11.02
2018-11-05T09:24:39.398Z,11.17
2018-11-05T09:25:39.384Z,11.14
2018-11-05T09:26:39.372Z,11.20
2018-11-05T09:27:39.471Z,11.10
2018-11-05T09:28:39.349Z,11.11
2018-11-05T09:29:39.339Z,11.17
2018-11-05T09:30:39.335Z,11.21
2018-11-05T09:31:39.315Z,11.11
2018-11-05T09:32:39.303Z,11.01
2018-11-05T09:33:39.305Z,11.02
2018-11-05T09:34:39.280Z,11.06
2018-11-05T09:35:39.270Z,11.03
2018-11-05T09:36:39.265Z,11.09
2018-11-05T09:37:39.259Z,11.03
2018-11-05T09:38:39.236Z,11.06
2018-11-05T09:39:39.222Z,10.99
2018-11-05T09:40:39.225Z,11.01
2018-11-05T09:41:39.200Z,10.98
2018-11-05T09:42:39.212Z,11.02
2018-11-05T09:43:39.176Z,11.03
2018-11-05T09:44:39.167Z,11.09
2018-11-05T09:45:39.204Z,11.07
2018-11-05T09:46:39.144Z,11.07
2018-11-05T09:47:39.137Z,11.06
2018-11-05T09:48:39.127Z,11.09
2018-11-05T09:49:39.152Z,11.11
2018-11-05T09:50:39.109Z,11.21
2018-11-05T09:51:39.097Z,11.13
2018-11-05T09:52:39.073Z,11.25
2018-11-05T09:53:39.063Z,11.16
2018-11-05T09:54:39.052Z,11.25
2018-11-05T09:55:39.096Z,11.28
2018-11-05T09:56:39.047Z,11.25
2018-11-05T09:57:39.019Z,11.19
2018-11-05T09:58:39.012Z,11.21
2018-11-05T09:59:38.995Z,11.27
2018-11-05T10:00:38.984Z,11.14
2018-11-05T10:01:38.994Z,11.27
2018-11-05T10:02:39.091Z,11.17
2018-11-05T10:03:39.192Z,11.24
2018-11-05T10:04:39.227Z,11.24
2018-11-05T10:05:39.061Z,11.27
2018-11-05T10:06:38.923Z,11.25
2018-11-05T10:07:38.903Z,11.24
2018-11-05T10:08:38.904Z,11.27
2018-11-05T10:09:38.930Z,11.27
2018-11-05T10:10:38.871Z,11.27
2018-11-05T10:11:38.858Z,11.25
2018-11-05T10:12:38.854Z,11.41
2018-11-05T10:13:38.847Z,11.32
2018-11-05T10:14:38.856Z,11.28
2018-11-05T10:15:38.811Z,11.36
2018-11-05T10:16:38.802Z,11.35
2018-11-05T10:17:38.792Z,11.36
2018-11-05T10:18:38.787Z,11.36
2018-11-05T10:19:38.767Z,11.38
2018-11-05T10:20:38.799Z,11.43
2018-11-05T10:21:38.779Z,11.44
2018-11-05T10:22:38.735Z,11.47
2018-11-05T10:23:38.720Z,11.59
2018-11-05T10:24:38.821Z,11.59
2018-11-05T10:25:38.699Z,11.49
2018-11-05T10:26:38.690Z,11.61
2018-11-05T10:27:38.697Z,11.57
2018-11-05T10:28:38.666Z,11.64
2018-11-05T10:29:38.655Z,11.62
2018-11-05T10:30:38.649Z,11.64
2018-11-05T10:31:38.632Z,11.61
2018-11-05T10:32:38.637Z,11.61
2018-11-05T10:33:38.729Z,11.68
2018-11-05T10:34:38.597Z,11.65
2018-11-05T10:35:38.588Z,11.71
2018-11-05T10:36:38.578Z,11.77
2018-11-05T10:37:38.563Z,11.72
2018-11-05T10:38:38.568Z,11.83
2018-11-05T10:39:38.543Z,11.78
2018-11-05T10:40:38.530Z,11.75
2018-11-05T10:41:38.520Z,11.93
2018-11-05T10:42:38.514Z,11.85
2018-11-05T10:43:38.532Z,11.87
2018-11-05T10:44:38.488Z,11.93
2018-11-05T10:45:38.474Z,11.75
2018-11-05T10:46:38.465Z,11.78
2018-11-05T10:47:38.452Z,11.78
2018-11-05T10:48:38.446Z,11.85
2018-11-05T10:49:38.465Z,11.71
2018-11-05T10:50:38.437Z,11.74
2018-11-05T10:51:38.413Z,11.67
2018-11-05T10:52:38.396Z,11.70
2018-11-05T10:53:38.387Z,11.72
2018-11-05T10:54:38.380Z,11.71
2018-11-05T10:55:38.374Z,11.64
2018-11-05T10:56:38.350Z,11.65
2018-11-05T10:57:38.378Z,11.52
2018-11-05T10:58:38.365Z,11.52
2018-11-05T10:59:38.315Z,11.44
2018-11-05T11:00:38.313Z,11.56
2018-11-05T11:01:38.294Z,11.54
2018-11-05T11:02:38.283Z,11.47
2018-11-05T11:03:38.340Z,11.61
2018-11-05T11:04:38.292Z,11.56
2018-11-05T11:05:38.247Z,11.59
2018-11-05T11:06:38.244Z,11.59
2018-11-05T11:07:38.226Z,11.68
2018-11-05T11:08:38.214Z,11.65
2018-11-05T11:09:38.325Z,11.71
2018-11-05T11:10:38.241Z,11.77
2018-11-05T11:11:38.179Z,11.78
2018-11-05T11:12:38.179Z,11.72
2018-11-05T11:13:38.159Z,11.80
2018-11-05T11:14:38.147Z,11.80
2018-11-05T11:15:38.136Z,11.82
2018-11-05T11:16:38.138Z,11.80
2018-11-05T11:17:38.113Z,11.87
2018-11-05T11:18:38.137Z,11.83
2018-11-05T11:19:38.091Z,11.82
2018-11-05T11:20:38.079Z,11.83
2018-11-05T11:21:38.068Z,11.75
2018-11-05T11:22:38.056Z,11.83
2018-11-05T11:23:38.045Z,11.83
2018-11-05T11:24:38.069Z,11.85
2018-11-05T11:25:38.029Z,11.85
2018-11-05T11:26:38.012Z,11.85
2018-11-05T11:27:38.068Z,11.85
2018-11-05T11:28:38.024Z,11.97
2018-11-05T11:29:37.977Z,11.85
2018-11-05T11:30:37.982Z,11.93
2018-11-05T11:31:37.962Z,11.96
2018-11-05T11:32:37.944Z,11.90
2018-11-05T11:33:37.931Z,11.93
2018-11-05T11:34:37.920Z,12.11
2018-11-05T11:35:37.925Z,12.02
2018-11-05T11:36:38.066Z,12.05
2018-11-05T11:37:37.897Z,12.09
2018-11-05T11:38:37.877Z,12.19
2018-11-05T11:39:37.871Z,12.13
2018-11-05T11:40:37.891Z,12.12
2018-11-05T11:41:37.842Z,12.11
2018-11-05T11:42:37.832Z,12.09
2018-11-05T11:43:37.872Z,12.15
2018-11-05T11:44:37.892Z,12.11
2018-11-05T11:45:37.798Z,12.13
2018-11-05T11:46:37.816Z,12.12
2018-11-05T11:47:37.773Z,12.13
2018-11-05T11:48:37.763Z,12.16
2018-11-05T11:49:37.760Z,12.09
2018-11-05T11:50:37.742Z,12.09
2018-11-05T11:51:37.728Z,12.09
2018-11-05T11:52:37.787Z,12.04
2018-11-05T11:53:37.714Z,12.09
2018-11-05T11:54:37.698Z,11.90
2018-11-05T11:55:37.688Z,11.99
2018-11-05T11:56:37.674Z,11.93
2018-11-05T11:57:37.845Z,11.96
2018-11-05T11:58:37.680Z,11.93
2018-11-05T11:59:37.640Z,11.87
2018-11-05T12:00:37.627Z,11.97
2018-11-05T12:01:37.640Z,11.94
2018-11-05T12:02:37.610Z,11.93
2018-11-05T12:03:37.594Z,11.94
2018-11-05T12:04:37.595Z,11.94
2018-11-05T12:05:37.605Z,11.90
2018-11-05T12:06:37.561Z,11.87
2018-11-05T12:07:37.549Z,11.94
2018-11-05T12:08:37.542Z,11.90
2018-11-05T12:09:37.526Z,11.87
2018-11-05T12:10:37.514Z,11.90
2018-11-05T12:11:37.534Z,11.87
2018-11-05T12:12:37.491Z,11.89
2018-11-05T12:13:37.479Z,12.01
2018-11-05T12:14:37.684Z,11.97
2018-11-05T12:15:37.464Z,11.97
2018-11-05T12:16:37.448Z,12.02
2018-11-05T12:17:37.449Z,11.99
2018-11-05T12:18:37.425Z,12.11
2018-11-05T12:19:37.426Z,12.12
2018-11-05T12:20:37.402Z,12.13
2018-11-05T12:21:37.394Z,12.15
2018-11-05T12:22:37.381Z,12.26
2018-11-05T12:23:37.365Z,12.12
2018-11-05T12:24:37.453Z,12.20
2018-11-05T12:25:37.350Z,12.15
2018-11-05T12:26:37.351Z,12.19
2018-11-05T12:27:37.327Z,12.21
2018-11-05T12:28:37.310Z,12.23
2018-11-05T12:29:37.300Z,12.20
2018-11-05T12:30:37.304Z,12.16
2018-11-05T12:31:37.277Z,12.21
2018-11-05T12:32:37.265Z,12.20
2018-11-05T12:33:37.261Z,12.19
2018-11-05T12:34:37.251Z,12.09
2018-11-05T12:35:37.275Z,12.12
2018-11-05T12:36:37.220Z,12.15
2018-11-05T12:37:37.210Z,12.12
2018-11-05T12:38:37.225Z,12.13
2018-11-05T12:39:37.193Z,12.12
2018-11-05T12:40:37.176Z,12.20
2018-11-05T12:41:37.198Z,12.19
2018-11-05T12:42:37.152Z,12.20
2018-11-05T12:43:37.141Z,12.16
2018-11-05T12:44:37.250Z,12.16
2018-11-05T12:45:37.125Z,12.20
2018-11-05T12:46:37.109Z,12.26
2018-11-05T12:47:37.112Z,12.44
2018-11-05T12:48:37.085Z,12.38
2018-11-05T12:49:37.075Z,12.41
2018-11-05T12:50:37.208Z,12.42
2018-11-05T12:51:37.056Z,12.45
2018-11-05T12:52:37.060Z,12.52
2018-11-05T12:53:37.027Z,12.52
2018-11-05T12:54:37.016Z,12.62
2018-11-05T12:55:37.045Z,12.57
2018-11-05T12:56:36.994Z,12.56